Time;durP1;ratioP1;P1;durP2;ratioP2;P2;SDS_P1;SDS_P2;PMS_P1;PMS_P2;Temp;Humidity;BMP_temperature;BMP_pressure;BME280_temperature;BME280_humidity;BME280_pressure;Samples;Min_cycle;Max_cycle;Signal;HPM_P1;HPM_P2
2022/12/20 00:04:05;;;;;;;7.88;5.35;;;;;;;;;;12984863;22;20024;-89
2022/12/20 00:09:11;;;;;;;10.32;5.60;;;;;;;;;;12984908;22;20094;-89
2022/12/20 00:14:14;;;;;;;8.82;5.57;;;;;;;;;;12982455;22;20026;-89
2022/12/20 00:19:18;;;;;;;9.35;5.60;;;;;;;;;;12983911;22;20506;-89
2022/12/20 00:24:24;;;;;;;7.95;5.10;;;;;;;;;;12984552;22;20479;-89
2022/12/20 00:29:28;;;;;;;6.85;4.13;;;;;;;;;;12987528;22;20039;-89
2022/12/20 00:34:32;;;;;;;6.53;4.47;;;;;;;;;;12986923;22;20057;-89
2022/12/20 00:39:37;;;;;;;7.30;4.43;;;;;;;;;;12991264;22;20023;-89
2022/12/20 00:44:40;;;;;;;6.30;3.90;;;;;;;;;;12997677;22;20073;-89
2022/12/20 00:49:44;;;;;;;6.88;4.00;;;;;;;;;;13000244;22;20030;-89
2022/12/20 00:54:49;;;;;;;4.72;3.17;;;;;;;;;;13002024;22;20092;-89
2022/12/20 00:59:52;;;;;;;5.93;4.15;;;;;;;;;;13022027;22;20054;-89
2022/12/20 01:04:56;;;;;;;5.60;3.92;;;;;;;;;;12999313;22;20112;-87
2022/12/20 01:10:01;;;;;;;5.82;3.95;;;;;;;;;;12989264;22;20472;-89
2022/12/20 01:15:06;;;;;;;5.05;3.33;;;;;;;;;;12986917;22;20026;-89
2022/12/20 01:20:12;;;;;;;4.22;2.95;;;;;;;;;;13009919;22;20022;-89
2022/12/20 01:25:17;;;;;;;6.03;3.60;;;;;;;;;;13009856;22;20035;-89
2022/12/20 01:30:21;;;;;;;5.68;3.42;;;;;;;;;;12985913;22;20019;-89
2022/12/20 01:35:25;;;;;;;10.20;5.20;;;;;;;;;;13009443;22;20385;-90
2022/12/20 01:40:30;;;;;;;6.82;4.35;;;;;;;;;;13028778;22;20039;-89
2022/12/20 01:45:34;;;;;;;6.50;3.88;;;;;;;;;;13009766;22;20022;-89
2022/12/20 01:50:38;;;;;;;5.70;3.92;;;;;;;;;;12985276;22;20011;-90
2022/12/20 01:55:43;;;;;;;8.15;4.47;;;;;;;;;;13010694;22;20102;-89
2022/12/20 02:00:46;;;;;;;6.20;3.88;;;;;;;;;;12986131;22;20106;-90
2022/12/20 02:05:50;;;;;;;8.60;4.38;;;;;;;;;;12985911;22;20038;-88
2022/12/20 02:11:10;;;;;;;6.47;4.15;;;;;;;;;;12985507;22;20038;-88
2022/12/20 02:16:19;;;;;;;8.40;5.20;;;;;;;;;;12993803;22;20098;-88
2022/12/20 02:21:30;;;;;;;8.15;3.83;;;;;;;;;;12991685;22;20027;-89
2022/12/20 02:27:00;;;;;;;5.38;3.50;;;;;;;;;;12991946;22;20064;-89
2022/12/20 02:32:09;;;;;;;6.45;3.42;;;;;;;;;;12994585;22;20027;-89
2022/12/20 02:37:13;;;;;;;8.32;4.40;;;;;;;;;;12984116;22;20039;-89
2022/12/20 02:42:21;;;;;;;6.82;4.03;;;;;;;;;;13017304;22;20030;-89
2022/12/20 02:47:34;;;;;;;3.80;2.63;;;;;;;;;;13015161;22;20062;-89
2022/12/20 02:52:39;;;;;;;5.22;3.28;;;;;;;;;;13014685;22;20027;-89
2022/12/20 02:57:50;;;;;;;4.07;2.55;;;;;;;;;;12992903;22;20041;-89
2022/12/20 03:08:22;;;;;;;4.68;2.83;;;;;;;;;;13015202;22;20047;-89
2022/12/20 03:13:26;;;;;;;7.25;2.42;;;;;;;;;;13017592;22;20053;-89
2022/12/20 03:18:36;;;;;;;4.18;2.60;;;;;;;;;;12988587;22;20572;-87
2022/12/20 03:23:39;;;;;;;3.72;2.60;;;;;;;;;;12984813;22;20042;-89
2022/12/20 03:28:44;;;;;;;2.85;2.10;;;;;;;;;;12983379;22;20020;-90
2022/12/20 03:33:53;;;;;;;4.00;2.60;;;;;;;;;;12984177;22;20084;-89
2022/12/20 03:38:58;;;;;;;3.37;2.30;;;;;;;;;;12984554;22;20030;-89
2022/12/20 03:44:04;;;;;;;3.15;1.83;;;;;;;;;;12983327;22;20023;-89
2022/12/20 03:49:09;;;;;;;2.20;1.67;;;;;;;;;;12984287;22;20089;-89
2022/12/20 03:54:19;;;;;;;2.20;1.52;;;;;;;;;;12983647;22;20023;-88
2022/12/20 03:59:55;;;;;;;2.80;1.70;;;;;;;;;;12991912;22;20019;-89
2022/12/20 04:05:00;;;;;;;4.68;1.60;;;;;;;;;;13015796;22;20015;-90
2022/12/20 04:10:07;;;;;;;2.60;1.25;;;;;;;;;;13014193;22;20023;-88
2022/12/20 04:15:11;;;;;;;2.50;1.50;;;;;;;;;;12995715;22;20023;-89
2022/12/20 04:20:18;;;;;;;2.00;1.30;;;;;;;;;;13017075;22;20196;-90
2022/12/20 04:25:29;;;;;;;1.13;0.90;;;;;;;;;;12992675;22;20077;-90
2022/12/20 04:30:33;;;;;;;1.67;1.10;;;;;;;;;;13018307;22;20019;-88
2022/12/20 04:35:39;;;;;;;1.90;1.08;;;;;;;;;;13015693;22;20033;-90
2022/12/20 04:40:43;;;;;;;2.53;1.30;;;;;;;;;;12993870;22;20464;-90
2022/12/20 04:45:49;;;;;;;2.53;1.60;;;;;;;;;;12994110;22;20031;-89
2022/12/20 04:50:55;;;;;;;1.77;0.90;;;;;;;;;;13007426;22;20023;-89
2022/12/20 04:56:03;;;;;;;2.13;1.20;;;;;;;;;;13006091;22;20702;-89
2022/12/20 05:01:07;;;;;;;1.35;1.00;;;;;;;;;;13008315;22;20370;-89
2022/12/20 05:06:20;;;;;;;2.88;1.10;;;;;;;;;;12992350;22;20102;-85
2022/12/20 05:11:24;;;;;;;2.53;1.80;;;;;;;;;;13003018;22;20407;-89
2022/12/20 05:16:32;;;;;;;5.47;1.83;;;;;;;;;;13034575;22;20034;-89
2022/12/20 05:26:59;;;;;;;4.65;2.00;;;;;;;;;;13020620;22;20023;-88
2022/12/20 05:32:04;;;;;;;3.65;1.85;;;;;;;;;;13017597;22;20021;-89
2022/12/20 05:37:13;;;;;;;2.35;1.77;;;;;;;;;;13043861;22;20029;-88
2022/12/20 05:42:18;;;;;;;1.77;1.30;;;;;;;;;;13022960;22;20496;-86
2022/12/20 05:47:25;;;;;;;2.67;1.33;;;;;;;;;;13019632;22;20015;-88
2022/12/20 05:52:40;;;;;;;1.92;1.30;;;;;;;;;;13019949;22;20027;-90
2022/12/20 05:57:51;;;;;;;2.58;1.60;;;;;;;;;;13018508;22;20456;-87
2022/12/20 06:03:03;;;;;;;4.28;1.90;;;;;;;;;;13005095;22;20030;-90
2022/12/20 06:08:11;;;;;;;1.67;1.47;;;;;;;;;;12987399;22;20392;-88
2022/12/20 06:13:14;;;;;;;4.37;1.63;;;;;;;;;;12981781;22;20027;-87
2022/12/20 06:18:18;;;;;;;3.03;1.58;;;;;;;;;;13008872;22;20250;-86
2022/12/20 06:23:25;;;;;;;2.63;1.67;;;;;;;;;;12981448;22;20023;-86
2022/12/20 06:28:42;;;;;;;3.10;1.50;;;;;;;;;;13004801;22;20102;-85
2022/12/20 06:33:46;;;;;;;1.83;1.35;;;;;;;;;;12981166;22;20515;-86
2022/12/20 06:38:53;;;;;;;2.65;1.27;;;;;;;;;;13007524;22;20027;-86
2022/12/20 06:43:57;;;;;;;1.65;1.13;;;;;;;;;;13014052;22;20326;-86
2022/12/20 06:49:01;;;;;;;1.48;0.98;;;;;;;;;;13014798;22;20050;-86
2022/12/20 06:54:06;;;;;;;1.15;1.05;;;;;;;;;;13005339;22;20027;-87
2022/12/20 06:59:10;;;;;;;2.73;1.27;;;;;;;;;;13014317;22;20045;-87
2022/12/20 07:04:14;;;;;;;0.77;0.60;;;;;;;;;;13014613;22;20057;-88
2022/12/20 07:09:19;;;;;;;1.63;0.95;;;;;;;;;;13013418;22;20023;-87
2022/12/20 07:14:23;;;;;;;0.82;0.70;;;;;;;;;;13011097;22;20314;-87
2022/12/20 07:19:29;;;;;;;1.20;0.80;;;;;;;;;;13012795;22;20434;-87
2022/12/20 07:24:34;;;;;;;1.10;0.87;;;;;;;;;;13013851;22;20023;-88
2022/12/20 07:29:40;;;;;;;2.40;1.00;;;;;;;;;;13038174;22;20022;-86
2022/12/20 07:34:47;;;;;;;1.25;0.98;;;;;;;;;;13011916;22;20019;-87
2022/12/20 07:39:52;;;;;;;2.30;1.60;;;;;;;;;;13011777;22;20030;-87
2022/12/20 07:44:56;;;;;;;1.42;0.90;;;;;;;;;;13012239;22;20027;-87
2022/12/20 07:49:59;;;;;;;3.28;1.00;;;;;;;;;;13020572;22;20119;-87
2022/12/20 07:55:09;;;;;;;1.45;1.00;;;;;;;;;;13046614;22;20019;-88
2022/12/20 08:00:17;;;;;;;1.52;1.00;;;;;;;;;;13018100;22;20026;-87
2022/12/20 08:05:24;;;;;;;2.47;1.13;;;;;;;;;;12953539;22;20472;-80
2022/12/20 08:10:30;;;;;;;1.17;1.08;;;;;;;;;;12966588;22;20520;-81
2022/12/20 08:15:36;;;;;;;1.20;1.10;;;;;;;;;;13019927;22;20030;-80
2022/12/20 08:20:41;;;;;;;3.53;1.00;;;;;;;;;;13023683;22;20471;-80
2022/12/20 08:25:46;;;;;;;0.98;0.70;;;;;;;;;;12997074;22;20080;-79
2022/12/20 08:30:50;;;;;;;1.88;0.70;;;;;;;;;;13042494;22;20069;-80
2022/12/20 08:35:59;;;;;;;1.27;1.05;;;;;;;;;;13040818;22;20026;-80
2022/12/20 08:41:09;;;;;;;1.73;0.88;;;;;;;;;;13041072;22;20029;-80
2022/12/20 08:46:24;;;;;;;1.52;0.90;;;;;;;;;;13022157;22;20031;-79
2022/12/20 08:51:47;;;;;;;0.70;0.63;;;;;;;;;;12997635;22;20407;-80
2022/12/20 08:56:55;;;;;;;1.02;0.80;;;;;;;;;;12998068;22;20498;-80
2022/12/20 09:01:58;;;;;;;;;;;;;;;;;;13036671;22;20567;-80
2022/12/20 09:07:02;;;;;;;2.00;1.00;;;;;;;;;;13036443;22;19914;-80
2022/12/20 09:12:07;;;;;;;1.50;1.00;;;;;;;;;;12995435;22;20023;-80
2022/12/20 09:17:20;;;;;;;2.72;1.20;;;;;;;;;;13022365;22;20336;-80
2022/12/20 09:22:28;;;;;;;2.45;1.45;;;;;;;;;;13035316;22;20045;-80
2022/12/20 09:27:33;;;;;;;1.88;0.90;;;;;;;;;;13033836;22;20023;-80
2022/12/20 09:32:52;;;;;;;2.60;0.90;;;;;;;;;;12995890;22;20019;-80
2022/12/20 09:38:36;;;;;;;1.30;0.80;;;;;;;;;;13021495;22;20019;-80
2022/12/20 10:17:38;;;;;;;;;;;;;;;;;;12816625;22;20016;-84
2022/12/20 10:22:46;;;;;;;1.52;0.93;;;;;;;;;;12893544;22;19921;-83
2022/12/20 10:27:52;;;;;;;1.83;0.93;;;;;;;;;;12879614;22;20476;-83
2022/12/20 10:32:58;;;;;;;2.88;0.88;;;;;;;;;;12879592;23;20039;-84
2022/12/20 10:38:04;;;;;;;1.40;0.90;;;;;;;;;;12838995;22;20083;-84
2022/12/20 10:43:17;;;;;;;1.10;0.80;;;;;;;;;;12864209;22;20024;-84
2022/12/20 10:48:29;;;;;;;1.40;1.10;;;;;;;;;;12916427;22;20422;-84
2022/12/20 10:53:32;;;;;;;1.75;0.95;;;;;;;;;;12913701;22;20075;-84
2022/12/20 10:58:37;;;;;;;1.10;0.85;;;;;;;;;;12888560;22;20481;-84
2022/12/20 11:03:53;;;;;;;1.33;0.80;;;;;;;;;;12888096;23;20024;-84
2022/12/20 11:09:31;;;;;;;0.95;0.60;;;;;;;;;;12862640;22;20016;-84
2022/12/20 11:14:37;;;;;;;1.05;0.77;;;;;;;;;;12884990;23;20087;-84
2022/12/20 11:20:08;;;;;;;3.00;0.80;;;;;;;;;;12886396;22;20024;-83
2022/12/20 11:25:29;;;;;;;1.13;0.70;;;;;;;;;;12887911;22;20044;-83
2022/12/20 11:30:40;;;;;;;1.42;0.80;;;;;;;;;;12882201;22;20273;-84
2022/12/20 11:35:54;;;;;;;1.27;0.82;;;;;;;;;;12902160;22;20024;-83
2022/12/20 11:41:18;;;;;;;2.50;1.00;;;;;;;;;;12882556;22;20103;-83
2022/12/20 11:46:32;;;;;;;1.80;0.90;;;;;;;;;;12899688;22;20400;-83
2022/12/20 11:51:47;;;;;;;3.10;1.20;;;;;;;;;;12896816;22;20030;-84
2022/12/20 11:56:57;;;;;;;0.77;0.68;;;;;;;;;;12914120;22;20115;-84
2022/12/20 12:02:05;;;;;;;3.80;0.88;;;;;;;;;;12904072;22;20099;-84
2022/12/20 12:07:15;;;;;;;1.42;0.80;;;;;;;;;;12878531;22;20043;-83
2022/12/20 12:12:25;;;;;;;1.23;0.80;;;;;;;;;;12879614;22;20027;-84
2022/12/20 12:17:38;;;;;;;1.73;1.05;;;;;;;;;;12911947;22;20473;-84
2022/12/20 12:22:44;;;;;;;0.88;0.73;;;;;;;;;;12908191;22;20024;-84
2022/12/20 12:27:47;;;;;;;3.97;0.70;;;;;;;;;;12896242;22;20031;-84
2022/12/20 12:32:55;;;;;;;1.02;0.60;;;;;;;;;;12889526;22;20054;-83
2022/12/20 12:38:22;;;;;;;0.70;0.57;;;;;;;;;;12888908;22;20055;-84
2022/12/20 12:43:45;;;;;;;1.13;0.82;;;;;;;;;;12915628;22;20350;-83
2022/12/20 12:48:54;;;;;;;1.90;0.90;;;;;;;;;;12906107;22;20288;-83
2022/12/20 12:54:16;;;;;;;1.00;0.65;;;;;;;;;;12890264;22;20087;-83
2022/12/20 12:59:41;;;;;;;1.35;0.43;;;;;;;;;;12883171;22;20026;-85
2022/12/20 13:04:56;;;;;;;1.70;0.85;;;;;;;;;;12885698;22;20028;-83
2022/12/20 13:10:02;;;;;;;1.45;0.80;;;;;;;;;;12888769;22;20024;-84
2022/12/20 13:15:39;;;;;;;1.20;0.70;;;;;;;;;;12886799;22;20012;-84
2022/12/20 13:20:43;;;;;;;1.05;0.68;;;;;;;;;;12888541;22;20095;-84
2022/12/20 13:25:50;;;;;;;1.50;0.65;;;;;;;;;;12886018;22;20020;-83
2022/12/20 13:31:27;;;;;;;1.20;0.73;;;;;;;;;;12880997;22;20024;-82
2022/12/20 13:36:34;;;;;;;1.38;0.88;;;;;;;;;;12908204;22;20030;-83
2022/12/20 13:41:46;;;;;;;2.20;0.80;;;;;;;;;;12883230;22;20020;-83
2022/12/20 13:46:55;;;;;;;1.95;0.63;;;;;;;;;;12910534;22;20368;-83
2022/12/20 13:52:17;;;;;;;1.48;1.00;;;;;;;;;;12882335;22;20650;-83
2022/12/20 13:57:28;;;;;;;1.58;1.08;;;;;;;;;;12884977;22;20107;-83
2022/12/20 14:02:36;;;;;;;1.40;0.80;;;;;;;;;;12901618;22;20138;-83
2022/12/20 14:07:40;;;;;;;2.67;0.75;;;;;;;;;;12889952;22;20027;-83
2022/12/20 14:12:49;;;;;;;1.65;0.80;;;;;;;;;;12912578;22;20042;-83
2022/12/20 14:17:55;;;;;;;1.63;0.95;;;;;;;;;;12913561;22;20023;-83
2022/12/20 14:23:02;;;;;;;0.80;0.68;;;;;;;;;;12897690;22;20024;-83
2022/12/20 14:28:19;;;;;;;1.48;0.75;;;;;;;;;;12889803;22;20102;-84
2022/12/20 14:33:31;;;;;;;2.25;1.10;;;;;;;;;;12891046;22;20055;-83
2022/12/20 14:38:34;;;;;;;1.02;0.77;;;;;;;;;;12894589;22;20030;-83
2022/12/20 14:43:39;;;;;;;0.93;0.70;;;;;;;;;;12887759;23;20107;-83
2022/12/20 14:48:42;;;;;;;3.90;1.17;;;;;;;;;;12904805;22;20111;-82
2022/12/20 14:53:47;;;;;;;1.92;0.80;;;;;;;;;;12902164;22;20360;-83
2022/12/20 14:59:05;;;;;;;1.20;0.90;;;;;;;;;;12902117;22;20024;-83
2022/12/20 15:04:24;;;;;;;1.20;0.82;;;;;;;;;;12876875;23;20614;-83
2022/12/20 15:09:27;;;;;;;2.03;1.45;;;;;;;;;;12886298;22;20020;-83
2022/12/20 15:14:36;;;;;;;1.85;1.45;;;;;;;;;;12879466;22;20086;-83
2022/12/20 15:19:39;;;;;;;0.98;0.82;;;;;;;;;;12878188;22;20028;-84
2022/12/20 15:24:44;;;;;;;1.20;0.80;;;;;;;;;;12881269;23;20024;-83
2022/12/20 15:29:49;;;;;;;1.73;0.88;;;;;;;;;;12906728;22;20047;-83
2022/12/20 15:34:52;;;;;;;1.15;0.70;;;;;;;;;;12882751;22;20777;-83
2022/12/20 15:39:56;;;;;;;3.00;0.90;;;;;;;;;;12905145;22;20018;-84
2022/12/20 15:45:01;;;;;;;1.02;0.77;;;;;;;;;;12883147;22;20099;-84
2022/12/20 15:50:06;;;;;;;1.77;0.88;;;;;;;;;;12907579;22;20346;-83
2022/12/20 15:55:11;;;;;;;0.90;0.75;;;;;;;;;;12883346;22;20079;-83
2022/12/20 16:00:17;;;;;;;0.60;0.60;;;;;;;;;;12885412;22;20023;-84
2022/12/20 16:05:20;;;;;;;0.65;0.60;;;;;;;;;;12886393;22;20052;-83
2022/12/20 16:10:23;;;;;;;0.88;0.70;;;;;;;;;;12906192;22;20028;-82
2022/12/20 16:15:28;;;;;;;1.00;0.63;;;;;;;;;;12889178;22;20265;-83
2022/12/20 16:20:31;;;;;;;1.50;0.73;;;;;;;;;;12908487;22;20016;-83
2022/12/20 16:25:36;;;;;;;2.58;0.70;;;;;;;;;;12904729;22;20032;-83
2022/12/20 16:30:41;;;;;;;2.13;0.88;;;;;;;;;;12884216;22;20091;-83
2022/12/20 16:35:46;;;;;;;;;;;;;;;;;;12886277;22;20020;-83
2022/12/20 16:40:49;;;;;;;0.90;0.90;;;;;;;;;;12886773;22;19915;-83
2022/12/20 16:45:54;;;;;;;0.75;0.70;;;;;;;;;;12907034;22;20048;-83
2022/12/20 16:50:57;;;;;;;0.88;0.80;;;;;;;;;;12885277;22;20020;-83
2022/12/20 16:56:01;;;;;;;0.70;0.68;;;;;;;;;;12913350;22;20024;-83
2022/12/20 17:01:06;;;;;;;1.17;0.82;;;;;;;;;;12903703;22;20032;-82
2022/12/20 17:06:12;;;;;;;2.00;1.00;;;;;;;;;;12912742;22;20020;-83
2022/12/20 17:11:17;;;;;;;0.80;0.70;;;;;;;;;;12886616;22;20560;-83
2022/12/20 17:16:23;;;;;;;2.38;1.20;;;;;;;;;;12903974;22;20028;-82
2022/12/20 17:21:33;;;;;;;3.33;1.37;;;;;;;;;;12882719;22;20058;-82
2022/12/20 17:26:51;;;;;;;2.13;1.30;;;;;;;;;;12899839;22;20024;-83
2022/12/20 17:31:56;;;;;;;2.75;1.40;;;;;;;;;;12882061;22;20109;-82
2022/12/20 17:36:59;;;;;;;1.88;1.42;;;;;;;;;;12897742;22;20035;-82
2022/12/20 17:42:05;;;;;;;1.63;1.10;;;;;;;;;;12877243;22;20032;-82
2022/12/20 17:47:11;;;;;;;1.67;0.90;;;;;;;;;;12886232;22;20035;-82
2022/12/20 17:52:15;;;;;;;2.65;1.20;;;;;;;;;;12899207;22;20107;-83
2022/12/20 17:57:18;;;;;;;2.00;1.27;;;;;;;;;;12885103;22;20103;-82
2022/12/20 18:02:26;;;;;;;1.48;0.68;;;;;;;;;;12874984;22;20045;-83
2022/12/20 18:07:29;;;;;;;2.22;1.13;;;;;;;;;;12886826;22;20024;-83
2022/12/20 18:12:32;;;;;;;1.10;0.82;;;;;;;;;;12887281;22;20051;-83
2022/12/20 18:17:41;;;;;;;1.92;0.90;;;;;;;;;;12896744;22;20485;-83
2022/12/20 18:22:44;;;;;;;1.17;1.08;;;;;;;;;;12918573;22;20071;-82
2022/12/20 18:27:48;;;;;;;2.10;1.10;;;;;;;;;;12890948;22;20496;-82
2022/12/20 18:32:53;;;;;;;3.17;1.17;;;;;;;;;;12904048;22;20024;-84
2022/12/20 18:37:56;;;;;;;1.65;1.15;;;;;;;;;;12883368;22;20031;-82
2022/12/20 18:42:59;;;;;;;2.00;1.40;;;;;;;;;;12922058;22;20058;-84
2022/12/20 18:48:07;;;;;;;1.75;1.20;;;;;;;;;;12887669;23;20024;-83
2022/12/20 18:53:11;;;;;;;3.55;2.25;;;;;;;;;;12898640;22;20047;-84
2022/12/20 18:58:14;;;;;;;2.30;1.30;;;;;;;;;;12916970;22;20024;-84
2022/12/20 19:03:20;;;;;;;1.55;0.90;;;;;;;;;;12922760;22;20255;-84
2022/12/20 19:08:27;;;;;;;2.80;1.38;;;;;;;;;;12883783;22;20063;-83
2022/12/20 19:13:30;;;;;;;3.28;1.10;;;;;;;;;;12891195;22;20784;-83
2022/12/20 19:18:36;;;;;;;1.08;0.85;;;;;;;;;;12880876;22;20520;-83
2022/12/20 19:23:41;;;;;;;1.80;1.15;;;;;;;;;;12885017;23;20020;-84
2022/12/20 19:28:45;;;;;;;1.98;1.25;;;;;;;;;;12900398;22;20028;-82
2022/12/20 19:33:52;;;;;;;1.90;1.10;;;;;;;;;;12878299;23;20054;-82
2022/12/20 19:38:57;;;;;;;1.77;1.23;;;;;;;;;;12910606;22;20020;-83
2022/12/20 19:44:01;;;;;;;1.90;1.05;;;;;;;;;;12895981;22;20571;-84
2022/12/20 19:49:06;;;;;;;1.70;1.00;;;;;;;;;;12890270;22;20020;-83
2022/12/20 19:54:10;;;;;;;2.00;1.10;;;;;;;;;;12903111;22;20099;-84
2022/12/20 19:59:15;;;;;;;0.98;0.80;;;;;;;;;;12894228;22;20036;-84
2022/12/20 20:04:20;;;;;;;1.77;0.80;;;;;;;;;;12896882;23;20667;-83
2022/12/20 20:09:24;;;;;;;1.75;1.10;;;;;;;;;;12890671;22;20031;-83
2022/12/20 20:14:27;;;;;;;3.30;1.50;;;;;;;;;;12890355;22;20020;-82
2022/12/20 20:19:32;;;;;;;1.35;1.02;;;;;;;;;;12903907;22;20064;-83
2022/12/20 20:24:36;;;;;;;2.70;1.42;;;;;;;;;;12881072;22;20038;-82
2022/12/20 20:29:39;;;;;;;2.05;0.95;;;;;;;;;;12903386;22;20024;-84
2022/12/20 20:34:44;;;;;;;1.25;0.90;;;;;;;;;;12903658;22;20016;-83
2022/12/20 20:39:48;;;;;;;1.40;0.88;;;;;;;;;;12878464;22;20020;-83
2022/12/20 20:44:51;;;;;;;1.67;1.20;;;;;;;;;;12818157;23;20335;-83
2022/12/20 20:49:56;;;;;;;5.20;1.08;;;;;;;;;;12842313;23;20017;-83
2022/12/20 20:55:00;;;;;;;2.53;1.00;;;;;;;;;;12817762;23;20027;-83
2022/12/20 21:00:04;;;;;;;1.77;1.00;;;;;;;;;;12816047;22;20021;-83
2022/12/20 21:05:10;;;;;;;2.05;1.20;;;;;;;;;;12847231;23;20020;-83
2022/12/20 21:10:34;;;;;;;1.55;1.23;;;;;;;;;;12842221;22;20023;-85
2022/12/20 21:15:42;;;;;;;3.22;1.90;;;;;;;;;;12819983;22;20701;-84
2022/12/20 21:20:48;;;;;;;2.60;1.58;;;;;;;;;;12818639;22;20016;-85
2022/12/20 21:25:56;;;;;;;2.60;1.65;;;;;;;;;;12853030;22;20040;-82
2022/12/20 21:31:00;;;;;;;2.40;1.65;;;;;;;;;;12862081;23;20315;-83
2022/12/20 21:36:08;;;;;;;2.10;1.73;;;;;;;;;;12844890;23;20471;-82
2022/12/20 21:41:13;;;;;;;2.38;1.60;;;;;;;;;;12846422;22;20100;-83
2022/12/20 21:46:16;;;;;;;2.30;1.80;;;;;;;;;;12851965;22;20035;-79
2022/12/20 21:51:23;;;;;;;2.72;1.85;;;;;;;;;;12867772;22;20035;-81
2022/12/20 21:56:28;;;;;;;2.20;1.60;;;;;;;;;;12846719;22;20024;-81
2022/12/20 22:01:32;;;;;;;2.87;1.77;;;;;;;;;;12825961;22;20104;-81
2022/12/20 22:06:37;;;;;;;2.05;1.40;;;;;;;;;;12827555;23;20340;-81
2022/12/20 22:11:40;;;;;;;2.03;1.42;;;;;;;;;;12827189;22;20031;-81
2022/12/20 22:16:43;;;;;;;1.40;1.30;;;;;;;;;;12848385;22;20040;-81
2022/12/20 22:21:48;;;;;;;2.05;1.40;;;;;;;;;;12848166;22;20031;-80
2022/12/20 22:26:54;;;;;;;2.25;1.40;;;;;;;;;;12825864;22;20020;-79
2022/12/20 22:31:57;;;;;;;3.53;1.75;;;;;;;;;;12851702;22;20454;-80
2022/12/20 22:37:02;;;;;;;1.83;1.33;;;;;;;;;;12826920;22;20032;-79
2022/12/20 22:42:05;;;;;;;2.10;1.70;;;;;;;;;;12835476;23;20072;-79
2022/12/20 22:47:08;;;;;;;1.10;1.00;;;;;;;;;;12822493;23;20028;-81
2022/12/20 22:52:13;;;;;;;1.13;1.00;;;;;;;;;;12848672;22;20080;-80
2022/12/20 22:57:16;;;;;;;2.17;1.33;;;;;;;;;;12824248;23;20029;-81
2022/12/20 23:02:20;;;;;;;1.52;1.42;;;;;;;;;;12847076;22;20031;-82
2022/12/20 23:07:26;;;;;;;1.38;1.10;;;;;;;;;;12853162;23;20071;-81
2022/12/20 23:17:50;;;;;;;1.30;1.08;;;;;;;;;;12860259;23;19920;-80
2022/12/20 23:22:55;;;;;;;1.20;1.10;;;;;;;;;;12851084;23;20040;-80
2022/12/20 23:27:58;;;;;;;1.52;1.20;;;;;;;;;;12836565;23;20028;-80
2022/12/20 23:33:01;;;;;;;1.25;0.80;;;;;;;;;;12833109;23;20024;-79
2022/12/20 23:38:06;;;;;;;1.70;1.05;;;;;;;;;;12827731;22;20083;-80
2022/12/20 23:43:09;;;;;;;1.77;1.00;;;;;;;;;;12848536;22;20040;-80
2022/12/20 23:48:13;;;;;;;2.08;1.40;;;;;;;;;;12828767;23;20030;-82
2022/12/20 23:53:18;;;;;;;1.15;1.05;;;;;;;;;;12859346;23;20030;-82
2022/12/20 23:58:21;;;;;;;0.85;0.75;;;;;;;;;;12851769;23;20033;-82
